Time;durP1;ratioP1;P1;durP2;ratioP2;P2;SDS_P1;SDS_P2;PMS_P1;PMS_P2;Temp;Humidity;BMP_temperature;BMP_pressure;BME280_temperature;BME280_humidity;BME280_pressure;Samples;Min_cycle;Max_cycle;Signal;HPM_P1;HPM_P2
2021/09/07 00:00:37;;;;;;;8.55;5.40;;;13.90;54.50;;;;;;5014907;28;20141;-65
2021/09/07 00:03:03;;;;;;;7.55;4.50;;;13.90;54.50;;;;;;5015120;28;20172;-64
2021/09/07 00:05:29;;;;;;;8.25;4.80;;;13.90;54.50;;;;;;5013854;28;20030;-64
2021/09/07 00:07:54;;;;;;;6.28;4.30;;;13.90;54.70;;;;;;5015181;28;20026;-64
2021/09/07 00:10:20;;;;;;;7.22;4.10;;;13.80;54.70;;;;;;5012108;28;20533;-64
2021/09/07 00:12:46;;;;;;;6.85;3.85;;;13.90;54.80;;;;;;4997280;28;20475;-64
2021/09/07 00:15:15;;;;;;;5.57;4.18;;;13.80;54.70;;;;;;4995486;28;20085;-64
2021/09/07 00:17:41;;;;;;;5.13;3.72;;;13.80;54.80;;;;;;4995410;28;20093;-64
2021/09/07 00:20:08;;;;;;;5.43;3.67;;;13.80;54.90;;;;;;4995259;28;20043;-64
2021/09/07 00:22:35;;;;;;;4.75;3.60;;;13.80;54.90;;;;;;4999861;28;20048;-64
2021/09/07 00:25:01;;;;;;;5.55;3.42;;;13.80;55.00;;;;;;5014571;28;20045;-64
2021/09/07 00:27:26;;;;;;;4.63;3.35;;;13.80;55.00;;;;;;5014365;28;20397;-64
2021/09/07 00:29:52;;;;;;;6.15;3.65;;;13.70;54.90;;;;;;5011727;28;20033;-64
2021/09/07 00:32:18;;;;;;;5.25;3.33;;;13.70;54.90;;;;;;5013652;28;20088;-64
2021/09/07 00:34:43;;;;;;;5.47;3.40;;;13.70;54.90;;;;;;5014628;28;20057;-64
2021/09/07 00:37:09;;;;;;;5.65;3.50;;;13.60;54.90;;;;;;5014647;28;20026;-64
2021/09/07 00:39:35;;;;;;;5.93;3.47;;;13.70;55.00;;;;;;5014382;28;20033;-64
2021/09/07 00:42:01;;;;;;;4.05;2.95;;;13.70;55.10;;;;;;5012900;28;20046;-64
2021/09/07 00:44:28;;;;;;;5.07;3.25;;;13.60;55.20;;;;;;5013578;28;20026;-64
2021/09/07 00:46:56;;;;;;;5.03;3.58;;;13.60;55.10;;;;;;5002299;28;20114;-64
2021/09/07 00:49:22;;;;;;;4.72;3.10;;;13.60;55.80;;;;;;4994756;28;20029;-65
2021/09/07 00:51:50;;;;;;;3.78;2.65;;;13.60;55.20;;;;;;4994799;28;20101;-64
2021/09/07 00:54:19;;;;;;;6.15;3.75;;;13.60;55.30;;;;;;4994708;28;20390;-64
2021/09/07 00:56:46;;;;;;;5.50;3.38;;;13.60;55.20;;;;;;5006306;28;20030;-64
2021/09/07 00:59:12;;;;;;;5.20;3.50;;;13.60;55.30;;;;;;5013263;28;20022;-64
2021/09/07 01:01:38;;;;;;;3.38;2.63;;;13.60;55.20;;;;;;5014089;28;20030;-64
2021/09/07 01:04:03;;;;;;;3.97;2.97;;;13.50;55.30;;;;;;5012322;28;20025;-64
2021/09/07 01:06:29;;;;;;;5.00;3.45;;;13.50;55.30;;;;;;5013357;28;20038;-65
2021/09/07 01:08:56;;;;;;;6.78;4.00;;;13.50;55.30;;;;;;5014529;28;20437;-64
2021/09/07 01:11:22;;;;;;;6.05;3.50;;;13.50;55.30;;;;;;5013186;28;20022;-64
2021/09/07 01:13:48;;;;;;;5.43;3.40;;;13.50;55.40;;;;;;5014215;28;20030;-64
2021/09/07 01:16:14;;;;;;;5.32;3.65;;;13.50;55.50;;;;;;5001616;28;20106;-64
2021/09/07 01:18:40;;;;;;;5.38;3.60;;;13.50;55.50;;;;;;4994387;28;20458;-64
2021/09/07 01:21:13;;;;;;;6.85;3.80;;;13.50;55.50;;;;;;4994078;28;20050;-64
2021/09/07 01:23:42;;;;;;;4.53;3.15;;;13.50;55.50;;;;;;5007398;28;20028;-64
2021/09/07 01:26:09;;;;;;;5.05;3.30;;;13.50;55.50;;;;;;5013584;28;20060;-64
2021/09/07 01:28:37;;;;;;;4.38;3.20;;;13.50;55.40;;;;;;5013850;28;20025;-64
2021/09/07 01:31:03;;;;;;;5.80;3.63;;;13.50;55.50;;;;;;5012605;28;20022;-64
2021/09/07 01:33:29;;;;;;;6.50;3.58;;;13.50;55.50;;;;;;5013263;28;20096;-64
2021/09/07 01:35:59;;;;;;;5.15;3.80;;;13.60;55.40;;;;;;5013882;28;20026;-64
2021/09/07 01:38:26;;;;;;;6.18;3.83;;;13.60;55.30;;;;;;5013899;28;20026;-64
2021/09/07 01:40:53;;;;;;;4.43;3.40;;;13.60;55.40;;;;;;5013120;28;20029;-64
2021/09/07 01:43:19;;;;;;;4.97;3.65;;;13.60;55.30;;;;;;5013574;28;20018;-65
2021/09/07 01:45:46;;;;;;;5.50;3.65;;;13.70;55.40;;;;;;5013933;28;20493;-64
2021/09/07 01:48:16;;;;;;;5.07;3.45;;;13.70;55.40;;;;;;5012161;28;20030;-64
2021/09/07 01:50:43;;;;;;;5.72;4.13;;;13.70;55.40;;;;;;5013960;28;20018;-64
2021/09/07 01:53:08;;;;;;;8.15;4.20;;;13.80;55.50;;;;;;5045554;28;20041;-64
2021/09/07 01:55:34;;;;;;;5.25;3.70;;;13.80;55.40;;;;;;5016936;28;20033;-64
2021/09/07 01:58:00;;;;;;;6.20;4.30;;;13.80;55.50;;;;;;5017147;28;20108;-64
2021/09/07 02:00:25;;;;;;;6.57;4.22;;;13.80;55.70;;;;;;5016807;28;20493;-64
2021/09/07 02:02:51;;;;;;;5.60;3.80;;;13.80;55.60;;;;;;5016919;28;23191;-64
2021/09/07 02:05:16;;;;;;;6.60;4.00;;;13.80;55.50;;;;;;5016440;28;20053;-64
2021/09/07 02:07:42;;;;;;;5.72;4.05;;;13.90;55.50;;;;;;5017382;28;20041;-64
2021/09/07 02:10:09;;;;;;;6.28;4.03;;;13.90;55.60;;;;;;5017482;28;20354;-64
2021/09/07 02:12:35;;;;;;;7.30;4.30;;;13.90;55.30;;;;;;5003275;28;20076;-64
2021/09/07 02:15:01;;;;;;;6.82;4.18;;;13.90;55.40;;;;;;4997580;28;20081;-65
2021/09/07 02:17:26;;;;;;;5.63;3.90;;;13.90;55.40;;;;;;4997441;28;20415;-64
2021/09/07 02:19:53;;;;;;;6.05;4.00;;;13.90;55.50;;;;;;5004325;28;20034;-64
2021/09/07 02:22:19;;;;;;;5.20;3.58;;;13.90;55.40;;;;;;5016240;28;20496;-64
2021/09/07 02:24:45;;;;;;;5.82;3.97;;;14.00;55.20;;;;;;5017376;28;20508;-64
2021/09/07 02:27:11;;;;;;;7.20;4.55;;;14.00;55.20;;;;;;5017013;28;20021;-64
2021/09/07 02:29:37;;;;;;;6.03;3.63;;;14.00;55.30;;;;;;5017046;28;20058;-64
2021/09/07 02:32:03;;;;;;;7.30;4.85;;;14.00;55.20;;;;;;5016988;28;20131;-64
2021/09/07 02:34:29;;;;;;;7.22;4.68;;;14.00;55.10;;;;;;5016851;28;20378;-64
2021/09/07 02:36:55;;;;;;;6.93;5.00;;;14.00;55.20;;;;;;4998033;28;20034;-64
2021/09/07 02:39:20;;;;;;;9.57;5.10;;;14.00;55.10;;;;;;5006604;28;20034;-64
2021/09/07 02:41:46;;;;;;;9.05;5.00;;;14.00;55.30;;;;;;5016742;28;20022;-64
2021/09/07 02:44:12;;;;;;;8.88;5.53;;;14.00;55.30;;;;;;5007491;28;20057;-64
2021/09/07 02:46:38;;;;;;;8.88;5.45;;;14.00;55.30;;;;;;4997081;28;20038;-64
2021/09/07 02:49:03;;;;;;;9.75;5.40;;;14.00;55.30;;;;;;4997390;28;20104;-64
2021/09/07 02:51:29;;;;;;;7.43;4.63;;;14.00;55.40;;;;;;5004676;28;20022;-64
2021/09/07 02:53:55;;;;;;;6.15;4.20;;;14.00;55.40;;;;;;5015597;28;20030;-65
2021/09/07 02:56:20;;;;;;;7.55;4.88;;;14.00;55.40;;;;;;5016208;28;20030;-64
2021/09/07 02:58:46;;;;;;;6.28;4.28;;;14.00;55.30;;;;;;5016499;28;20022;-64
2021/09/07 03:01:12;;;;;;;7.60;4.75;;;14.00;55.40;;;;;;5016318;28;20033;-64
2021/09/07 03:03:37;;;;;;;6.78;4.35;;;14.00;55.30;;;;;;5016540;28;20101;-64
2021/09/07 03:06:04;;;;;;;6.88;4.38;;;14.00;55.20;;;;;;5005424;28;20023;-64
2021/09/07 03:08:30;;;;;;;6.85;4.53;;;13.90;55.20;;;;;;5002075;28;20026;-64
2021/09/07 03:10:56;;;;;;;6.60;4.45;;;13.90;55.10;;;;;;5016261;28;20029;-64
2021/09/07 03:13:22;;;;;;;7.30;4.28;;;14.00;55.10;;;;;;5016068;28;20453;-64
2021/09/07 03:15:47;;;;;;;6.13;4.40;;;14.00;55.20;;;;;;5016199;28;20026;-64
2021/09/07 03:18:14;;;;;;;6.45;4.53;;;13.90;55.10;;;;;;5016329;28;20022;-64
2021/09/07 03:20:40;;;;;;;6.00;4.18;;;13.90;55.20;;;;;;5014426;28;20046;-64
2021/09/07 03:23:05;;;;;;;5.90;3.92;;;13.90;55.30;;;;;;5011797;28;20038;-64
2021/09/07 03:25:31;;;;;;;6.30;4.30;;;13.80;55.30;;;;;;5015482;28;20026;-64
2021/09/07 03:27:57;;;;;;;7.35;4.78;;;13.80;55.40;;;;;;5015279;28;20032;-64
2021/09/07 03:30:24;;;;;;;6.97;4.63;;;13.70;55.40;;;;;;5015468;28;20112;-64
2021/09/07 03:32:50;;;;;;;6.75;4.20;;;13.70;55.30;;;;;;5015960;28;20034;-64
2021/09/07 03:35:17;;;;;;;5.93;3.92;;;13.70;55.30;;;;;;5015700;28;20481;-64
2021/09/07 03:37:43;;;;;;;6.38;3.70;;;13.70;55.30;;;;;;5015696;28;20037;-64
2021/09/07 03:40:10;;;;;;;7.05;4.35;;;13.60;55.30;;;;;;5004536;28;20031;-65
2021/09/07 03:42:36;;;;;;;6.50;4.60;;;13.60;55.40;;;;;;4996129;28;20034;-64
2021/09/07 03:45:03;;;;;;;8.13;4.82;;;13.60;55.50;;;;;;5009367;28;20360;-64
2021/09/07 03:47:29;;;;;;;4.88;3.72;;;13.60;55.70;;;;;;5015329;28;20084;-64
2021/09/07 03:49:55;;;;;;;7.78;4.88;;;13.50;55.60;;;;;;5015540;28;20591;-64
2021/09/07 03:52:21;;;;;;;7.97;4.50;;;13.50;56.20;;;;;;5015009;28;20026;-64
2021/09/07 03:54:47;;;;;;;9.93;5.60;;;13.50;55.70;;;;;;5014488;28;20021;-64
2021/09/07 03:57:13;;;;;;;6.32;4.13;;;13.50;55.60;;;;;;5017270;28;20034;-64
2021/09/07 03:59:38;;;;;;;6.82;5.15;;;13.50;55.80;;;;;;5015027;28;20037;-64
2021/09/07 04:02:04;;;;;;;7.55;4.78;;;13.50;55.60;;;;;;5015257;28;20363;-64
2021/09/07 04:04:30;;;;;;;8.63;5.40;;;13.50;55.60;;;;;;5015251;28;20451;-64
2021/09/07 04:06:57;;;;;;;5.45;4.53;;;13.50;55.70;;;;;;5014317;28;20026;-64
2021/09/07 04:09:23;;;;;;;7.07;4.97;;;13.40;55.70;;;;;;5014350;28;20096;-64
2021/09/07 04:11:49;;;;;;;7.80;5.05;;;13.40;55.80;;;;;;5013241;28;20033;-64
2021/09/07 04:14:15;;;;;;;8.10;5.00;;;13.40;55.90;;;;;;4994945;28;20088;-64
2021/09/07 04:16:41;;;;;;;8.45;5.32;;;13.40;56.00;;;;;;5012296;28;20022;-64
2021/09/07 04:19:06;;;;;;;9.73;5.63;;;13.40;56.20;;;;;;5015028;28;20034;-64
2021/09/07 04:21:32;;;;;;;9.10;5.28;;;13.30;56.20;;;;;;5013847;28;20075;-64
2021/09/07 04:23:58;;;;;;;8.60;5.13;;;13.30;56.30;;;;;;5014420;28;20478;-64
2021/09/07 04:26:24;;;;;;;9.30;5.82;;;13.30;56.30;;;;;;5014557;28;20401;-64
2021/09/07 04:28:49;;;;;;;9.85;6.25;;;13.30;56.40;;;;;;5015042;28;20029;-64
2021/09/07 04:31:16;;;;;;;8.07;5.28;;;13.30;56.50;;;;;;5014275;28;20030;-64
2021/09/07 04:33:42;;;;;;;10.05;5.60;;;13.30;56.50;;;;;;5014161;28;20040;-64
2021/09/07 04:36:07;;;;;;;7.82;5.30;;;13.30;56.50;;;;;;5014627;28;20022;-64
2021/09/07 04:38:33;;;;;;;9.70;5.85;;;13.30;56.50;;;;;;5014897;28;20466;-65
2021/09/07 04:40:59;;;;;;;7.63;4.75;;;13.30;56.70;;;;;;5013971;28;20029;-64
2021/09/07 04:43:24;;;;;;;7.90;5.07;;;13.40;56.60;;;;;;5014625;28;20022;-65
2021/09/07 04:45:50;;;;;;;9.18;5.22;;;13.40;56.60;;;;;;5008988;28;20462;-65
2021/09/07 04:48:16;;;;;;;7.63;4.78;;;13.50;56.60;;;;;;5014299;28;20050;-64
2021/09/07 04:50:41;;;;;;;10.63;5.22;;;13.60;56.40;;;;;;4999546;28;20027;-64
2021/09/07 04:53:07;;;;;;;8.15;4.85;;;13.60;56.30;;;;;;5000805;28;20040;-64
2021/09/07 04:55:33;;;;;;;8.88;5.18;;;13.70;56.20;;;;;;5013339;28;20120;-64
2021/09/07 04:57:58;;;;;;;9.52;5.72;;;13.80;55.90;;;;;;5029307;28;20075;-64
2021/09/07 05:00:24;;;;;;;9.73;6.28;;;13.90;55.70;;;;;;5026561;28;20101;-64
2021/09/07 05:02:50;;;;;;;8.07;5.53;;;14.00;55.70;;;;;;4994150;28;20092;-64
2021/09/07 05:05:15;;;;;;;9.73;5.45;;;14.00;55.30;;;;;;4993703;28;20662;-64
2021/09/07 05:07:41;;;;;;;17.70;7.13;;;14.10;55.20;;;;;;5011756;28;20100;-64
2021/09/07 05:10:07;;;;;;;11.57;7.55;;;14.10;55.20;;;;;;5010896;28;20017;-63
2021/09/07 05:12:33;;;;;;;9.38;6.47;;;14.20;55.10;;;;;;5013817;28;20057;-63
2021/09/07 05:14:59;;;;;;;12.07;7.13;;;14.30;55.00;;;;;;5041292;28;20115;-63
2021/09/07 05:17:25;;;;;;;10.18;5.75;;;14.40;54.80;;;;;;5009833;28;20026;-63
2021/09/07 05:19:50;;;;;;;9.57;5.78;;;14.40;54.90;;;;;;5005506;28;20034;-63
2021/09/07 05:22:16;;;;;;;7.32;5.47;;;14.50;54.70;;;;;;5011628;28;20033;-63
2021/09/07 05:24:42;;;;;;;12.30;5.80;;;14.60;54.60;;;;;;5001140;28;20030;-64
2021/09/07 05:27:08;;;;;;;11.63;5.80;;;14.70;54.40;;;;;;5006360;28;20438;-64
2021/09/07 05:29:33;;;;;;;8.10;4.90;;;14.70;54.30;;;;;;5009351;28;20065;-64
2021/09/07 05:31:59;;;;;;;10.32;4.72;;;14.80;54.30;;;;;;5005308;28;20041;-64
2021/09/07 05:34:25;;;;;;;6.30;4.20;;;14.80;54.40;;;;;;5009558;28;20089;-64
2021/09/07 05:36:50;;;;;;;5.50;4.28;;;14.90;54.20;;;;;;5006151;28;20038;-64
2021/09/07 05:39:16;;;;;;;7.10;4.05;;;15.00;54.50;;;;;;5010043;28;20064;-64
2021/09/07 05:41:42;;;;;;;6.30;4.55;;;15.10;54.20;;;;;;5000956;28;20054;-64
2021/09/07 05:44:08;;;;;;;6.65;4.22;;;15.20;54.10;;;;;;5004085;28;20140;-64
2021/09/07 05:46:34;;;;;;;8.88;4.22;;;15.30;53.90;;;;;;5003900;28;20018;-64
2021/09/07 05:49:00;;;;;;;6.10;3.83;;;15.40;53.80;;;;;;5004358;28;20081;-65
2021/09/07 05:51:25;;;;;;;6.28;4.00;;;15.50;53.50;;;;;;4993092;28;20030;-63
2021/09/07 05:53:51;;;;;;;6.13;4.38;;;15.60;53.40;;;;;;4994671;28;20117;-62
2021/09/07 05:56:17;;;;;;;6.10;3.70;;;15.70;53.20;;;;;;4993574;28;20034;-62
2021/09/07 05:58:43;;;;;;;6.55;3.88;;;15.70;53.20;;;;;;4997585;28;20022;-62
2021/09/07 06:01:09;;;;;;;7.10;4.40;;;15.80;53.10;;;;;;4991526;28;20038;-63
2021/09/07 06:03:34;;;;;;;4.97;3.63;;;15.90;53.00;;;;;;4987839;28;20030;-64
2021/09/07 06:06:00;;;;;;;5.40;3.30;;;15.90;52.90;;;;;;4994993;28;20034;-63
2021/09/07 06:08:28;;;;;;;4.82;3.63;;;15.90;53.00;;;;;;4996101;28;20025;-63
2021/09/07 06:10:54;;;;;;;8.00;3.88;;;16.00;52.70;;;;;;4988612;28;20030;-64
2021/09/07 06:13:21;;;;;;;5.40;3.85;;;16.10;52.70;;;;;;5011199;28;20038;-64
2021/09/07 06:15:47;;;;;;;5.78;3.45;;;16.10;52.70;;;;;;4995900;28;20038;-64
2021/09/07 06:18:13;;;;;;;5.20;3.10;;;16.10;52.40;;;;;;4996164;28;20179;-64
2021/09/07 06:20:38;;;;;;;7.00;3.22;;;16.20;52.50;;;;;;4996811;28;20049;-62
2021/09/07 06:23:05;;;;;;;5.70;2.95;;;16.30;52.40;;;;;;4998605;28;20042;-62
2021/09/07 06:25:31;;;;;;;9.43;4.53;;;16.30;52.30;;;;;;5027327;28;20022;-62
2021/09/07 06:27:57;;;;;;;4.45;3.25;;;16.40;52.30;;;;;;4997641;28;20034;-62
2021/09/07 06:30:23;;;;;;;4.32;2.90;;;16.50;52.10;;;;;;4995962;28;20457;-62
2021/09/07 06:32:48;;;;;;;4.38;2.78;;;16.60;52.10;;;;;;4991584;28;20041;-63
2021/09/07 06:35:14;;;;;;;4.15;3.05;;;16.60;52.00;;;;;;4992227;28;20560;-63
2021/09/07 06:37:42;;;;;;;3.67;2.60;;;16.70;51.90;;;;;;4986032;28;20033;-63
2021/09/07 06:40:08;;;;;;;4.95;2.72;;;16.80;51.90;;;;;;4990309;28;20229;-62
2021/09/07 06:42:34;;;;;;;4.78;2.92;;;16.80;51.80;;;;;;4986524;28;20030;-63
2021/09/07 06:45:00;;;;;;;4.00;2.92;;;16.90;51.60;;;;;;4993709;28;20745;-62
2021/09/07 06:47:26;;;;;;;4.68;2.92;;;17.00;51.50;;;;;;4991028;28;20034;-62
2021/09/07 06:49:52;;;;;;;4.95;2.83;;;17.00;51.40;;;;;;4999327;28;20091;-63
2021/09/07 06:52:20;;;;;;;5.38;3.03;;;17.10;51.50;;;;;;4990636;28;20049;-63
2021/09/07 06:54:46;;;;;;;4.50;2.78;;;17.20;51.20;;;;;;4997151;28;20033;-62
2021/09/07 06:57:12;;;;;;;3.88;2.78;;;17.20;50.90;;;;;;4992728;28;20875;-63
2021/09/07 06:59:37;;;;;;;3.83;2.63;;;17.30;50.80;;;;;;4989816;28;20034;-63
2021/09/07 07:02:03;;;;;;;3.83;2.50;;;17.40;50.60;;;;;;4990756;28;20026;-63
2021/09/07 07:04:29;;;;;;;5.30;2.38;;;17.40;50.80;;;;;;4994318;28;20033;-63
2021/09/07 07:06:55;;;;;;;3.22;2.50;;;17.40;50.30;;;;;;4983403;28;20101;-63
2021/09/07 07:09:20;;;;;;;6.43;2.50;;;17.50;50.20;;;;;;4983795;28;20498;-63
2021/09/07 07:11:46;;;;;;;3.50;2.65;;;17.50;50.20;;;;;;4992910;28;20116;-63
2021/09/07 07:14:12;;;;;;;4.05;3.10;;;17.60;50.20;;;;;;4987382;28;20034;-62
2021/09/07 07:16:37;;;;;;;5.10;2.70;;;17.70;50.40;;;;;;4989238;28;20416;-63
2021/09/07 07:19:03;;;;;;;3.58;2.55;;;17.70;50.10;;;;;;4991309;28;20029;-63
2021/09/07 07:21:29;;;;;;;3.35;2.65;;;17.80;50.20;;;;;;4986068;28;20057;-63
2021/09/07 07:23:56;;;;;;;4.15;2.92;;;17.80;50.80;;;;;;4991848;28;20029;-63
2021/09/07 07:26:21;;;;;;;8.40;4.05;;;17.90;51.10;;;;;;4990715;28;20659;-63
2021/09/07 07:28:47;;;;;;;4.03;2.92;;;17.90;51.30;;;;;;4988997;28;20037;-62
2021/09/07 07:31:13;;;;;;;4.57;2.95;;;18.00;51.20;;;;;;4986866;28;20080;-63
2021/09/07 07:33:38;;;;;;;3.80;2.80;;;18.00;51.30;;;;;;4986930;28;20064;-62
2021/09/07 07:36:05;;;;;;;4.45;3.35;;;18.10;51.70;;;;;;4988356;28;20036;-62
2021/09/07 07:38:31;;;;;;;4.68;2.97;;;18.10;51.90;;;;;;4986363;28;20694;-63
2021/09/07 07:40:57;;;;;;;4.07;3.10;;;18.10;51.90;;;;;;4987497;28;20036;-63
2021/09/07 07:43:25;;;;;;;4.97;3.10;;;18.10;51.90;;;;;;4990262;28;20077;-63
2021/09/07 07:45:51;;;;;;;3.33;2.90;;;18.10;52.00;;;;;;4985348;28;20030;-63
2021/09/07 07:48:17;;;;;;;5.43;3.17;;;18.10;52.10;;;;;;4992071;28;20400;-63
2021/09/07 07:50:43;;;;;;;4.22;3.05;;;18.10;52.30;;;;;;4987028;28;20509;-63
2021/09/07 07:53:09;;;;;;;4.82;3.58;;;18.00;52.20;;;;;;4991830;28;20038;-62
2021/09/07 07:55:34;;;;;;;4.63;2.65;;;18.00;52.10;;;;;;4983786;28;20041;-62
2021/09/07 07:58:00;;;;;;;3.95;2.83;;;18.00;52.30;;;;;;4986244;28;20069;-62
2021/09/07 08:00:26;;;;;;;5.35;3.70;;;18.00;52.30;;;;;;4988099;28;20129;-62
2021/09/07 08:02:52;;;;;;;6.10;3.53;;;17.90;52.10;;;;;;4989790;28;20039;-62
2021/09/07 08:05:17;;;;;;;6.38;3.90;;;17.80;52.30;;;;;;4991462;28;20026;-62
2021/09/07 08:07:43;;;;;;;4.00;3.30;;;17.90;52.50;;;;;;4986598;28;20048;-62
2021/09/07 08:10:09;;;;;;;6.68;3.85;;;17.80;52.60;;;;;;4981876;28;20038;-62
2021/09/07 08:12:35;;;;;;;4.50;3.33;;;17.80;52.90;;;;;;4988956;28;20049;-62
2021/09/07 08:15:01;;;;;;;5.85;3.50;;;17.70;53.60;;;;;;4991909;28;20561;-63
2021/09/07 08:17:26;;;;;;;6.00;3.50;;;17.70;53.10;;;;;;4990949;28;20092;-63
2021/09/07 08:19:52;;;;;;;6.45;4.13;;;17.70;53.10;;;;;;4990537;28;20113;-62
2021/09/07 08:22:18;;;;;;;6.47;3.97;;;17.60;53.30;;;;;;4992184;28;20034;-62
2021/09/07 08:24:44;;;;;;;5.78;4.15;;;17.60;53.40;;;;;;4991738;28;20036;-63
2021/09/07 08:27:09;;;;;;;5.65;4.07;;;17.50;53.60;;;;;;4992955;28;20056;-63
2021/09/07 08:29:35;;;;;;;4.40;3.28;;;17.50;53.60;;;;;;4987906;28;20030;-63
2021/09/07 08:32:01;;;;;;;7.70;4.22;;;17.50;53.80;;;;;;4992760;28;20052;-62
2021/09/07 08:34:27;;;;;;;6.93;5.00;;;17.50;54.00;;;;;;4995057;28;20534;-62
2021/09/07 08:36:53;;;;;;;7.28;3.92;;;17.40;53.70;;;;;;4986658;28;20506;-63
2021/09/07 08:39:19;;;;;;;7.38;3.88;;;17.40;53.90;;;;;;4991994;28;20044;-63
2021/09/07 08:41:45;;;;;;;5.97;3.75;;;17.40;53.70;;;;;;4992254;28;21791;-63
2021/09/07 08:44:11;;;;;;;5.88;3.88;;;17.40;54.30;;;;;;4986437;28;20034;-62
2021/09/07 08:46:37;;;;;;;5.75;3.92;;;17.30;53.60;;;;;;4990688;28;20121;-63
2021/09/07 08:49:02;;;;;;;6.65;4.10;;;17.30;53.90;;;;;;4986511;28;20537;-63
2021/09/07 08:51:28;;;;;;;7.65;4.38;;;17.30;53.50;;;;;;4984275;28;20041;-63
2021/09/07 08:53:54;;;;;;;4.88;3.92;;;17.30;53.80;;;;;;4984278;28;20029;-63
2021/09/07 08:56:20;;;;;;;6.03;3.90;;;17.30;53.60;;;;;;4987706;28;20026;-65
2021/09/07 08:58:46;;;;;;;6.35;3.70;;;17.30;53.50;;;;;;4987261;28;20034;-63
2021/09/07 09:01:17;;;;;;;5.70;3.58;;;17.30;53.40;;;;;;4990069;28;20478;-63
2021/09/07 09:03:44;;;;;;;;;;;17.40;53.50;;;;;;4992889;28;20033;-62
2021/09/07 09:06:10;;;;;;;5.35;3.20;;;17.30;53.10;;;;;;4989431;28;20333;-63
2021/09/07 09:08:37;;;;;;;5.18;3.03;;;17.30;53.20;;;;;;4991671;28;20033;-63
2021/09/07 09:11:07;;;;;;;6.07;3.20;;;17.40;53.20;;;;;;4989640;28;20041;-63
2021/09/07 09:13:59;;;;;;;4.25;3.20;;;17.30;52.70;;;;;;4987752;28;20573;-63
2021/09/07 09:16:31;;;;;;;4.82;3.50;;;17.40;52.70;;;;;;4991288;28;20044;-64
2021/09/07 09:18:56;;;;;;;6.72;4.07;;;17.40;52.90;;;;;;4985343;28;20113;-63
2021/09/07 09:21:27;;;;;;;5.60;3.90;;;17.40;53.00;;;;;;4986690;28;20065;-63
2021/09/07 09:24:18;;;;;;;5.65;3.50;;;17.40;53.00;;;;;;4986350;28;20471;-63
2021/09/07 09:26:50;;;;;;;7.65;4.55;;;17.40;53.10;;;;;;4991750;28;20030;-63
2021/09/07 09:29:20;;;;;;;5.43;3.70;;;17.40;53.00;;;;;;4989435;28;20108;-63
2021/09/07 09:32:00;;;;;;;7.03;3.90;;;17.40;53.00;;;;;;4995016;28;20634;-63
2021/09/07 09:34:27;;;;;;;7.85;3.70;;;17.50;52.80;;;;;;4991365;28;20970;-64
2021/09/07 09:37:14;;;;;;;6.57;3.85;;;17.50;52.60;;;;;;4980504;28;20071;-64
2021/09/07 09:39:48;;;;;;;5.82;3.70;;;17.50;52.60;;;;;;4992474;28;20088;-63
2021/09/07 09:42:19;;;;;;;5.03;3.55;;;17.50;52.60;;;;;;4990680;28;20033;-64
2021/09/07 09:44:45;;;;;;;4.60;3.60;;;17.50;52.40;;;;;;4990625;28;20109;-63
2021/09/07 09:47:11;;;;;;;6.13;3.70;;;17.50;52.10;;;;;;4983946;28;20548;-63
2021/09/07 09:49:37;;;;;;;5.78;4.10;;;17.50;52.00;;;;;;4991403;28;20099;-63
2021/09/07 09:52:07;;;;;;;6.03;4.30;;;17.60;52.00;;;;;;4988995;28;20053;-63
2021/09/07 09:54:35;;;;;;;8.47;4.10;;;17.60;52.00;;;;;;4988782;28;20126;-63
2021/09/07 09:57:04;;;;;;;5.57;3.70;;;17.60;52.20;;;;;;4986465;28;20035;-64
2021/09/07 09:59:30;;;;;;;5.03;3.38;;;17.60;52.10;;;;;;4985662;28;20035;-63
2021/09/07 10:01:57;;;;;;;4.43;3.30;;;17.60;51.80;;;;;;4989262;28;20770;-64
2021/09/07 10:04:25;;;;;;;5.40;3.47;;;17.70;51.50;;;;;;4990414;28;20026;-63
2021/09/07 10:06:52;;;;;;;5.15;3.47;;;17.70;51.30;;;;;;4985611;28;20117;-64
2021/09/07 10:09:19;;;;;;;4.43;3.15;;;17.70;51.30;;;;;;4984391;28;20049;-63
2021/09/07 10:11:57;;;;;;;4.78;3.50;;;17.70;51.00;;;;;;4987115;28;20030;-63
2021/09/07 10:14:27;;;;;;;4.47;2.65;;;17.70;50.80;;;;;;4990566;28;21070;-63
2021/09/07 10:25:44;;;;;;;6.80;3.53;;;17.80;50.50;;;;;;4992021;28;20099;-62
2021/09/07 10:28:11;;;;;;;7.30;3.90;;;17.80;50.40;;;;;;5006791;28;20489;-64
2021/09/07 10:30:58;;;;;;;6.75;3.67;;;17.80;50.40;;;;;;5002342;28;21854;-63
2021/09/07 10:33:44;;;;;;;5.57;2.90;;;17.80;50.40;;;;;;4999402;28;20041;-63
2021/09/07 10:36:11;;;;;;;6.30;3.20;;;17.90;50.50;;;;;;5001801;28;20161;-63
2021/09/07 10:38:38;;;;;;;7.15;4.15;;;17.90;50.60;;;;;;5004755;28;20038;-63
2021/09/07 10:41:04;;;;;;;7.50;4.43;;;17.90;50.30;;;;;;5000130;28;20038;-63
2021/09/07 10:43:50;;;;;;;7.80;3.88;;;17.90;50.30;;;;;;4998234;28;20038;-63
2021/09/07 10:46:36;;;;;;;5.60;3.33;;;17.90;50.40;;;;;;5001818;28;20032;-63
2021/09/07 10:49:24;;;;;;;6.32;3.75;;;17.90;50.50;;;;;;4999736;28;20038;-63
2021/09/07 10:52:19;;;;;;;7.78;3.95;;;18.00;50.30;;;;;;4999639;28;20078;-63
2021/09/07 10:54:56;;;;;;;4.72;3.33;;;18.00;50.40;;;;;;5002029;28;20029;-64
2021/09/07 10:57:52;;;;;;;11.40;4.15;;;17.90;50.30;;;;;;5003590;28;20124;-64
2021/09/07 11:00:24;;;;;;;9.40;4.88;;;18.00;50.50;;;;;;4999301;28;20057;-63
2021/09/07 11:03:07;;;;;;;11.60;5.15;;;18.00;50.10;;;;;;5004053;28;20029;-63
2021/09/07 11:05:40;;;;;;;9.40;4.88;;;18.00;50.00;;;;;;4998645;28;20034;-63
2021/09/07 11:08:11;;;;;;;9.23;5.07;;;18.00;49.90;;;;;;5003764;28;20036;-63
2021/09/07 11:10:38;;;;;;;9.98;4.78;;;18.00;49.80;;;;;;5001795;28;20061;-63
2021/09/07 11:13:09;;;;;;;11.45;4.45;;;18.10;49.90;;;;;;5003305;28;20044;-63
2021/09/07 11:15:43;;;;;;;6.97;4.30;;;18.00;49.80;;;;;;4996916;28;20037;-63
2021/09/07 11:18:15;;;;;;;10.05;4.97;;;18.10;49.80;;;;;;4996663;28;20033;-64
2021/09/07 11:20:46;;;;;;;9.45;4.45;;;18.10;50.20;;;;;;4996638;28;20057;-64
2021/09/07 11:23:22;;;;;;;9.18;4.72;;;18.10;49.70;;;;;;5000584;28;20071;-62
2021/09/07 11:25:59;;;;;;;8.73;4.60;;;18.10;49.70;;;;;;4998803;28;20092;-63
2021/09/07 11:28:25;;;;;;;9.13;4.47;;;18.10;49.80;;;;;;4996840;28;20089;-63
2021/09/07 11:30:52;;;;;;;7.63;4.28;;;18.10;49.90;;;;;;5001256;28;20026;-61
2021/09/07 11:33:22;;;;;;;8.07;4.32;;;18.10;49.60;;;;;;4999007;28;20061;-63
2021/09/07 11:35:53;;;;;;;5.45;3.42;;;18.10;49.50;;;;;;4998098;28;20029;-63
2021/09/07 11:38:30;;;;;;;7.63;3.80;;;18.10;49.50;;;;;;4997158;28;20432;-63
2021/09/07 11:40:59;;;;;;;7.22;4.40;;;18.10;49.50;;;;;;4997883;28;20033;-62
2021/09/07 11:43:32;;;;;;;6.85;3.90;;;18.20;49.70;;;;;;4994207;28;20441;-63
2021/09/07 11:46:23;;;;;;;7.65;4.22;;;18.10;49.60;;;;;;5001146;28;20032;-63
2021/09/07 11:48:51;;;;;;;6.75;3.50;;;18.10;49.70;;;;;;4997070;28;20088;-64
2021/09/07 11:51:24;;;;;;;7.20;3.97;;;18.20;49.90;;;;;;4996251;28;20605;-62
2021/09/07 11:53:58;;;;;;;6.28;3.70;;;18.10;49.90;;;;;;4996634;28;20033;-63
2021/09/07 11:56:26;;;;;;;6.40;3.75;;;18.20;49.90;;;;;;4992704;28;20021;-62
2021/09/07 11:58:52;;;;;;;6.55;4.10;;;18.10;50.00;;;;;;4993795;28;20026;-64
2021/09/07 12:01:28;;;;;;;7.68;3.78;;;18.10;50.00;;;;;;4993944;28;20607;-62
2021/09/07 12:04:00;;;;;;;7.13;3.80;;;18.20;50.20;;;;;;4991854;28;20100;-63
2021/09/07 12:06:31;;;;;;;6.28;3.70;;;18.10;50.10;;;;;;4986674;28;20026;-63
2021/09/07 12:09:22;;;;;;;5.47;3.53;;;18.20;50.20;;;;;;4990620;28;20137;-63
2021/09/07 12:11:51;;;;;;;5.28;3.55;;;18.20;50.20;;;;;;4989069;28;20737;-63
2021/09/07 12:14:21;;;;;;;9.95;4.13;;;18.20;50.30;;;;;;4982473;28;20038;-62
2021/09/07 12:16:53;;;;;;;4.80;3.40;;;18.20;50.20;;;;;;4987843;28;20026;-61
2021/09/07 12:19:30;;;;;;;5.20;3.25;;;18.20;50.00;;;;;;4988536;28;20401;-63
2021/09/07 12:22:20;;;;;;;6.30;3.25;;;18.20;50.10;;;;;;4993804;28;20078;-63
2021/09/07 12:25:05;;;;;;;4.32;3.20;;;18.20;50.10;;;;;;4993576;28;20367;-63
2021/09/07 12:27:37;;;;;;;5.35;2.90;;;18.20;50.30;;;;;;4993642;28;20050;-63
2021/09/07 12:30:19;;;;;;;3.65;2.60;;;18.20;50.00;;;;;;4990055;28;20139;-64
2021/09/07 12:32:48;;;;;;;4.28;2.75;;;18.20;50.90;;;;;;4998996;28;20041;-63
2021/09/07 12:35:37;;;;;;;3.60;2.80;;;18.20;50.30;;;;;;4999810;28;21018;-64
2021/09/07 12:38:06;;;;;;;3.67;2.80;;;18.20;50.40;;;;;;5000255;28;20037;-63
2021/09/07 12:40:32;;;;;;;3.40;2.60;;;18.20;50.40;;;;;;5001580;28;20040;-63
2021/09/07 12:42:58;;;;;;;4.47;2.97;;;18.20;50.20;;;;;;4991132;28;20057;-63
2021/09/07 12:45:27;;;;;;;4.82;2.80;;;18.20;50.10;;;;;;4997155;28;20753;-63
2021/09/07 12:47:53;;;;;;;3.80;2.60;;;18.20;50.00;;;;;;4992171;28;20088;-63
2021/09/07 12:50:19;;;;;;;3.47;2.70;;;18.20;50.20;;;;;;4992495;28;20029;-62
2021/09/07 12:52:44;;;;;;;3.95;2.55;;;18.20;50.30;;;;;;4996911;28;20065;-63
2021/09/07 12:55:10;;;;;;;3.38;2.30;;;18.20;50.20;;;;;;4989512;28;20957;-62
2021/09/07 12:57:36;;;;;;;3.53;2.13;;;18.20;50.40;;;;;;4989713;28;20053;-63